Flight Track Log - Related Links

Times and Time Zones

All times are in EDT time to prevent confusion due to time zone crossing. See the LYM752 flight status page for this flight to view local times or setup timezone preferences in your user account.

Time Position Orientation Groundspeed Altitude Reporting Facility
EDT Latitude Longitude Course Direction KTS MPH feet Rate Location/Type
Fri 11:57:55 AM 39.0933 -108.5067 65° Northeast 132 152 6,100  Level Denver Center
Fri 11:58:57 AM 39.0628 -108.4961 165° South 119 137 7,200 1,056 Climbing Denver Center
Fri 12:00:00 PM 39.0486 -108.5169 229° Southwest 111 128 8,300 1,008 Climbing Denver Center
Fri 12:01:02 PM 39.0778 -108.4997 25° Northeast 123 142 9,300 1,016 Climbing Denver Center
Fri 12:02:04 PM 39.1042 -108.4744 37° Northeast 118 136 10,400 1,065 Climbing Denver Center
Fri 12:03:00 PM 39.1909 -108.1986 65° Northeast  Level Estimated
Fri 12:03:06 PM 39.1339 -108.4467 36° Northeast 124 143 11,500  Level Denver Center
Fri 12:04:08 PM 39.1594 -108.4217 37° Northeast 116 133 12,400 919 Climbing Denver Center
Fri 12:05:10 PM 39.1886 -108.3944 36° Northeast 125 144 13,400 871 Climbing Denver Center
Fri 12:06:12 PM 39.2153 -108.3708 34° Northeast 118 136 14,200 823 Climbing Denver Center
Fri 12:07:14 PM 39.2436 -108.3431 37° Northeast 126 145 15,100 823 Climbing Denver Center
Fri 12:08:16 PM 39.2700 -108.3000 52° Northeast 135 155 15,900 774 Climbing Denver Center
Fri 12:09:18 PM 39.2953 -108.2611 50° Northeast 142 163 16,700 581 Climbing Denver Center
Fri 12:10:20 PM 39.3206 -108.2133 56° Northeast 150 173 17,100 194 Climbing Denver Center
Fri 12:11:22 PM 39.3439 -108.1531 63° Northeast 186 214 17,100  Level Denver Center
Fri 12:12:24 PM 39.3700 -108.0883 62° Northeast 188 216 17,100  Level Denver Center
Fri 12:13:26 PM 39.3950 -108.0253 63° Northeast 198 228 17,100  Level Denver Center
Fri 12:14:28 PM 39.4222 -107.9544 64° Northeast 205 236 17,100  Level Denver Center
Fri 12:15:31 PM 39.4467 -107.8903 64° Northeast 210 242 17,100  Level Denver Center
Fri 12:16:33 PM 39.4753 -107.8175 63° Northeast 204 235 17,100  Level Denver Center
Fri 12:17:35 PM 39.4983 -107.7539 65° Northeast 204 235 17,100  Level Denver Center
Fri 12:18:37 PM 39.5283 -107.6808 62° Northeast 205 236 17,100  Level Denver Center
Fri 12:19:39 PM 39.5547 -107.6189 61° Northeast 205 236 17,100  Level Denver Center
Fri 12:20:41 PM 39.5786 -107.5533 65° Northeast 210 242 17,100  Level Denver Center
Fri 12:21:43 PM 39.6044 -107.4761 67° East 209 241 17,100  Level Denver Center
Fri 12:22:45 PM 39.6272 -107.4103 66° East 209 241 17,100  Level Denver Center
Fri 12:23:47 PM 39.6531 -107.3336 66° East 209 241 17,100  Level Denver Center
Fri 12:24:49 PM 39.6811 -107.2706 60° Northeast 209 241 17,100  Level Denver Center
Fri 12:25:51 PM 39.7114 -107.1975 62° Northeast 210 242 17,100  Level Denver Center
Fri 12:26:53 PM 39.7372 -107.1300 64° Northeast 206 237 17,100  Level Denver Center
Fri 12:27:55 PM 39.7622 -107.0631 64° Northeast 206 237 17,100  Level Denver Center
Fri 12:28:57 PM 39.7867 -106.9961 65° Northeast 204 235 17,100  Level Denver Center
Fri 12:29:59 PM 39.8117 -106.9275 65° Northeast 207 238 17,100  Level Denver Center
Fri 12:31:01 PM 39.8358 -106.8589 65° Northeast 208 239 17,100  Level Denver Center
Fri 12:32:03 PM 39.8608 -106.7900 65° Northeast 209 241 17,100  Level Denver Center
Fri 12:33:06 PM 39.8922 -106.7106 63° Northeast 206 237 17,100  Level Denver Center
Fri 12:34:08 PM 39.9208 -106.6450 60° Northeast 206 237 17,100  Level Denver Center
Fri 12:35:10 PM 39.9478 -106.5789 62° Northeast 206 237 17,100  Level Denver Center
Fri 12:36:12 PM 39.9744 -106.5108 63° Northeast 208 239 17,100 48 Level Denver Center
Fri 12:37:14 PM 40.0011 -106.4447 62° Northeast 206 237 17,200  Climbing Denver Center
Fri 12:38:16 PM 40.0275 -106.3769 63° Northeast 208 239 17,100 -48 Descending Denver Center
Fri 12:39:18 PM 40.0528 -106.2903 69° East 208 239 17,100  Level Denver Center
Fri 12:40:20 PM 40.0750 -106.2183 68° East 211 243 17,100 -97 Level Denver Center
Fri 12:41:22 PM 40.0964 -106.1458 69° East 212 244 16,900 -97 Descending Denver Center
Fri 12:42:24 PM 40.1211 -106.0786 64° Northeast 209 241 16,900  Level Denver Center
Fri 12:43:26 PM 40.1469 -106.0089 64° Northeast 210 242 16,900 145 Level Denver Center
Fri 12:44:28 PM 40.1728 -105.9417 63° Northeast 209 241 17,200 97 Climbing Denver Center
Fri 12:45:30 PM 40.2017 -105.8614 65° Northeast 205 236 17,100 -48 Descending Denver Center
Fri 12:46:32 PM 40.2275 -105.7894 65° Northeast 213 245 17,100  Level Denver Center
Fri 12:47:34 PM 40.2517 -105.7178 66° East 216 249 17,100  Level Denver Center
Fri 12:48:36 PM 40.2761 -105.6464 66° East 215 247 17,100 -48 Level Denver Center
Fri 12:49:38 PM 40.3036 -105.5775 62° Northeast 214 246 17,000 -145 Descending Denver Center
Fri 12:50:40 PM 40.3297 -105.5083 64° Northeast 211 243 16,800 -435 Descending Denver Center
Fri 12:51:42 PM 40.3572 -105.4275 66° East 216 249 16,100 -768 Descending Denver Center
Fri 12:52:45 PM 40.3067 -105.3642 136° Southeast 234 269 15,200 -480 Descending Denver Center
Fri 12:53:47 PM 40.2578 -105.3106 140° Southeast 230 265 15,100 -97 Descending Denver Center
Fri 12:54:49 PM 40.2244 -105.2403 122° Southeast 213 245 15,000 -48 Descending Denver Center
Fri 12:55:51 PM 40.1922 -105.1794 125° Southeast 205 236 15,000 97 Level Denver Center
Fri 12:56:53 PM 40.1600 -105.1186 125° Southeast 192 221 15,200  Climbing Denver Center
Fri 12:57:55 PM 40.1278 -105.0606 126° Southeast 196 226 15,000 -97 Descending Denver Center
Fri 12:58:57 PM 40.0931 -104.9933 124° Southeast 207 238 15,000 -339 Level Denver Center
Fri 12:59:59 PM 40.0578 -104.9272 125° Southeast 220 253 14,300 -726 Descending Denver Center
Fri 01:01:01 PM 40.0208 -104.8564 124° Southeast 234 269 13,500 -629 Descending Denver Center
Fri 01:02:03 PM 39.9808 -104.7792 124° Southeast 237 273 13,000 -242 Descending Denver Center
Fri 01:03:05 PM 39.9742 -104.7025 96° East 212 244 13,000  Level Denver Center
Fri 01:04:07 PM 39.9717 -104.6214 92° East 207 238 13,000 63 Level Denver Center
Fri 01:04:40 PM 39.9667 -104.5833 100° East 217 250 13,100 -323 Climbing Denver TRACON
Fri 01:05:40 PM 39.9167 -104.5500 153° Southeast 234 269 12,500 -745 Descending Denver TRACON
Fri 01:07:13 PM 39.8153 -104.5081 162° South 238 274 11,200 -852 Descending Denver Center
Fri 01:08:15 PM 39.7492 -104.5025 176° South 237 273 10,300 -823 Descending Denver Center
Fri 01:09:17 PM 39.6867 -104.5019 180° South 224 258 9,500 -816 Descending Denver Center
Fri 01:10:20 PM 39.6414 -104.5411 214° Southwest 220 253 8,600 -720 Descending Denver Center
Fri 01:11:22 PM 39.6397 -104.6189 268° West 181 208 8,000 -484 Descending Denver Center
Fri 01:12:24 PM 39.6814 -104.6394 339° North 171 197 7,600 -290 Descending Denver Center
Fri 01:13:26 PM 39.7306 -104.6408 359° North 175 201 7,400 -387 Descending Denver Center
Fri 01:14:28 PM 39.7778 -104.6414 359° North 171 197 6,800 -726 Descending Denver Center
Fri 01:15:30 PM 39.8206 -104.6419 359° North 152 175 5,900 -726 Descending Denver Center
Fri 01:16:32 PM 39.8653 -104.6422 360° North 145 167 5,300 -581 Descending Denver Center
Fri 01:18:00 PM 39.8617 -104.6732 174° South  Level Estimated
Fri 01:25:00 PM 39.8617 -104.6732 347° North  Level Estimated

Login

Don't have an account? Register now (free) for customized features, flight alerts, and more!